Time;durP1;ratioP1;P1;durP2;ratioP2;P2;SDS_P1;SDS_P2;PMS_P1;PMS_P2;Temp;Humidity;BMP_temperature;BMP_pressure;BME280_temperature;BME280_humidity;BME280_pressure;Samples;Min_cycle;Max_cycle;Signal;HPM_P1;HPM_P2
2022/08/27 00:01:58;;;;;;;;;;;21.50;99.90;;;;;;5055420;28;19920;-50
2022/08/27 00:04:24;;;;;;;;;;;21.60;99.90;;;;;;5054609;28;19990;-47
2022/08/27 00:06:49;;;;;;;;;;;21.50;99.90;;;;;;5054759;28;20364;-47
2022/08/27 00:09:15;;;;;;;;;;;21.50;99.90;;;;;;5055351;28;19913;-49
2022/08/27 00:11:41;;;;;;;;;;;21.60;99.90;;;;;;5054578;28;20389;-53
2022/08/27 00:14:06;;;;;;;;;;;21.60;99.90;;;;;;5054439;28;19912;-53
2022/08/27 00:16:32;;;;;;;;;;;21.60;99.90;;;;;;5054739;28;19999;-47
2022/08/27 00:18:57;;;;;;;;;;;21.30;99.90;;;;;;5054207;28;19925;-51
2022/08/27 00:21:23;;;;;;;;;;;21.30;99.90;;;;;;5054424;28;19928;-50
2022/08/27 00:23:49;;;;;;;;;;;21.50;99.90;;;;;;5054174;28;19923;-47
2022/08/27 00:26:15;;;;;;;;;;;21.50;99.90;;;;;;5052939;28;19920;-51
2022/08/27 00:28:41;;;;;;;;;;;21.50;99.90;;;;;;5054555;28;19959;-53
2022/08/27 00:31:09;;;;;;;;;;;21.50;99.90;;;;;;5053320;28;19909;-53
2022/08/27 00:33:35;;;;;;;;;;;21.50;99.90;;;;;;5054813;28;20365;-52
2022/08/27 00:36:02;;;;;;;;;;;21.50;99.90;;;;;;5054805;28;19931;-50
2022/08/27 00:38:27;;;;;;;;;;;21.30;99.90;;;;;;5054927;28;19920;-47
2022/08/27 00:40:54;;;;;;;;;;;21.30;99.90;;;;;;5054238;28;20288;-48
2022/08/27 00:43:24;;;;;;;;;;;21.20;99.90;;;;;;5054106;28;19986;-50
2022/08/27 00:45:52;;;;;;;;;;;21.30;99.90;;;;;;5036570;28;19924;-51
2022/08/27 00:48:19;;;;;;;;;;;21.30;99.90;;;;;;5051189;28;19912;-52
2022/08/27 00:50:47;;;;;;;;;;;21.40;99.90;;;;;;5054774;28;19916;-49
2022/08/27 00:53:15;;;;;;;;;;;21.30;99.90;;;;;;5053900;28;19919;-49
2022/08/27 00:55:53;;;;;;;;;;;21.40;99.90;;;;;;5054288;28;19912;-52
2022/08/27 00:58:30;;;;;;;;;;;21.40;99.90;;;;;;5054630;28;19920;-49
2022/08/27 01:00:56;;;;;;;;;;;21.40;99.90;;;;;;5053908;28;19913;-50
2022/08/27 01:03:24;;;;;;;;;;;21.40;99.90;;;;;;5043144;28;19940;-54
2022/08/27 01:05:50;;;;;;;;;;;21.40;99.90;;;;;;5034485;28;19960;-50
2022/08/27 01:08:18;;;;;;;;;;;21.40;99.90;;;;;;5048020;28;20434;-49
2022/08/27 01:10:45;;;;;;;;;;;21.40;99.90;;;;;;5053653;28;19920;-45
2022/08/27 01:13:12;;;;;;;;;;;21.50;99.90;;;;;;5052779;28;19924;-51
2022/08/27 01:15:38;;;;;;;;;;;21.50;99.90;;;;;;5053531;28;19913;-51
2022/08/27 01:18:04;;;;;;;;;;;21.40;99.90;;;;;;5053982;28;20341;-54
2022/08/27 01:20:39;;;;;;;;;;;21.50;99.90;;;;;;5053498;28;19924;-51
2022/08/27 01:23:08;;;;;;;;;;;21.50;99.90;;;;;;5053664;28;19956;-52
2022/08/27 01:25:34;;;;;;;;;;;21.50;99.90;;;;;;5053788;28;19915;-54
2022/08/27 01:28:02;;;;;;;;;;;21.60;99.90;;;;;;5053489;28;19913;-50
2022/08/27 01:30:27;;;;;;;;;;;21.40;99.90;;;;;;5052986;28;19917;-53
2022/08/27 01:32:53;;;;;;;;;;;21.40;99.90;;;;;;5051856;28;19912;-55
2022/08/27 01:35:22;;;;;;;;;;;21.10;99.90;;;;;;5053042;28;19917;-47
2022/08/27 01:37:48;;;;;;;;;;;21.30;99.90;;;;;;5053520;28;20381;-49
2022/08/27 01:40:14;;;;;;;;;;;21.30;99.90;;;;;;5053114;28;20008;-51
2022/08/27 01:42:41;;;;;;;;;;;21.30;99.90;;;;;;5052067;28;19944;-50
2022/08/27 01:45:07;;;;;;;;;;;21.20;99.90;;;;;;5052906;28;20296;-47
2022/08/27 01:47:33;;;;;;;;;;;21.20;99.90;;;;;;5053121;28;19908;-52
2022/08/27 01:49:59;;;;;;;;;;;21.20;99.90;;;;;;5052643;28;19917;-48
2022/08/27 01:52:26;;;;;;;;;;;21.20;99.90;;;;;;5052629;28;19963;-54
2022/08/27 01:54:51;;;;;;;;;;;21.20;99.90;;;;;;5052775;28;19967;-53
2022/08/27 01:57:18;;;;;;;;;;;21.10;99.90;;;;;;5052451;28;20323;-53
2022/08/27 01:59:44;;;;;;;;;;;21.20;99.90;;;;;;5052956;28;20439;-52
2022/08/27 02:02:10;;;;;;;;;;;21.30;99.90;;;;;;5051621;28;20007;-53
2022/08/27 02:04:36;;;;;;;;;;;21.00;99.90;;;;;;5053079;28;20364;-49
2022/08/27 02:07:02;;;;;;;;;;;21.00;99.90;;;;;;5052105;28;19913;-52
2022/08/27 02:09:27;;;;;;;;;;;21.10;99.90;;;;;;5067928;28;19919;-52
2022/08/27 02:11:53;;;;;;;;;;;21.20;99.90;;;;;;5052276;28;19913;-49
2022/08/27 02:14:19;;;;;;;;;;;21.10;99.90;;;;;;5051517;28;19967;-49
2022/08/27 02:16:45;;;;;;;;;;;21.00;99.90;;;;;;5052593;28;19959;-51
2022/08/27 02:19:10;;;;;;;;;;;21.00;99.90;;;;;;5052551;28;19913;-52
2022/08/27 02:21:36;;;;;;;;;;;20.90;99.90;;;;;;5051491;28;19923;-50
2022/08/27 02:24:02;;;;;;;;;;;21.00;99.90;;;;;;5050518;28;19999;-49
2022/08/27 02:26:28;;;;;;;;;;;20.90;99.90;;;;;;5051873;28;19908;-47
2022/08/27 02:28:54;;;;;;;;;;;21.00;99.90;;;;;;5052456;28;20349;-50
2022/08/27 02:31:19;;;;;;;;;;;20.90;99.90;;;;;;5052451;28;19909;-50
2022/08/27 02:33:45;;;;;;;;;;;20.90;99.90;;;;;;5052446;28;20005;-53
2022/08/27 02:36:12;;;;;;;;;;;21.00;99.90;;;;;;5052472;28;20376;-49
2022/08/27 02:38:38;;;;;;;;;;;20.90;99.90;;;;;;5053056;28;19913;-51
2022/08/27 02:41:03;;;;;;;;;;;21.00;99.90;;;;;;5051572;28;19962;-55
2022/08/27 02:43:30;;;;;;;;;;;21.00;99.90;;;;;;5052894;28;19919;-53
2022/08/27 02:45:56;;;;;;;;;;;21.00;99.90;;;;;;5054097;28;19920;-54
2022/08/27 02:48:23;;;;;;;;;;;20.90;99.90;;;;;;5055636;28;19978;-55
2022/08/27 02:50:49;;;;;;;;;;;21.00;99.90;;;;;;5059290;28;19920;-49
2022/08/27 02:53:14;;;;;;;;;;;21.00;99.90;;;;;;5069869;28;19908;-48
2022/08/27 02:55:40;;;;;;;;;;;20.90;99.90;;;;;;5068236;28;19991;-54
2022/08/27 02:58:05;;;;;;;;;;;20.90;99.90;;;;;;5071380;28;19913;-52
2022/08/27 03:00:31;;;;;;;;;;;20.80;99.90;;;;;;5062221;28;19921;-51
2022/08/27 03:02:56;;;;;;;;;;;20.80;99.90;;;;;;5049763;28;20001;-51
2022/08/27 03:05:22;;;;;;;;;;;20.90;99.90;;;;;;5054289;28;20011;-52
2022/08/27 03:07:48;;;;;;;;;;;21.00;99.90;;;;;;5056263;28;20360;-54
2022/08/27 03:10:15;;;;;;;;;;;20.90;99.90;;;;;;5054900;28;19931;-51
2022/08/27 03:12:44;;;;;;;;;;;20.90;99.90;;;;;;5055531;28;19913;-53
2022/08/27 03:15:11;;;;;;;;;;;20.90;99.90;;;;;;5055823;28;19909;-54
2022/08/27 03:20:21;;;;;;;;;;;21.10;99.90;;;;;;5055763;28;20391;-54
2022/08/27 03:22:47;;;;;;;;;;;21.10;99.90;;;;;;5055819;28;19920;-52
2022/08/27 03:25:12;;;;;;;;;;;21.00;99.90;;;;;;5054442;28;19913;-52
2022/08/27 03:27:38;;;;;;;;;;;21.00;99.90;;;;;;5054786;28;19921;-48
2022/08/27 03:30:05;;;;;;;;;;;21.00;99.90;;;;;;5055650;28;20047;-46
2022/08/27 03:32:31;;;;;;;;;;;20.70;99.90;;;;;;5055280;28;20010;-50
2022/08/27 03:34:57;;;;;;;;;;;20.70;99.90;;;;;;5054970;28;20555;-46
2022/08/27 03:37:23;;;;;;;;;;;20.70;99.90;;;;;;5054940;28;19917;-52
2022/08/27 03:39:48;;;;;;;;;;;20.70;99.90;;;;;;5056233;28;19923;-50
2022/08/27 03:42:14;;;;;;;;;;;20.60;99.90;;;;;;5055260;28;20519;-51
2022/08/27 03:44:40;;;;;;;;;;;20.50;99.90;;;;;;5043947;28;20297;-49
2022/08/27 03:47:05;;;;;;;;;;;20.50;99.90;;;;;;5049186;28;19917;-49
2022/08/27 03:49:31;;;;;;;;;;;20.50;99.90;;;;;;5055687;28;19992;-52
2022/08/27 03:51:57;;;;;;;;;;;20.40;99.90;;;;;;5052744;28;19916;-49
2022/08/27 03:54:23;;;;;;;;;;;20.40;99.90;;;;;;5055432;28;19913;-47
2022/08/27 03:56:49;;;;;;;;;;;20.50;99.90;;;;;;5055042;28;19956;-51
2022/08/27 03:59:15;;;;;;;;;;;20.50;99.90;;;;;;5053964;28;19931;-49
2022/08/27 04:01:40;;;;;;;;;;;20.50;99.90;;;;;;5054603;28;19921;-50
2022/08/27 04:04:06;;;;;;;;;;;20.60;99.90;;;;;;5054735;28;19913;-54
2022/08/27 04:06:35;;;;;;;;;;;20.50;99.90;;;;;;5055158;28;19917;-51
2022/08/27 04:09:01;;;;;;;;;;;20.70;99.90;;;;;;5054480;28;19915;-50
2022/08/27 04:11:28;;;;;;;;;;;20.60;99.90;;;;;;5052717;28;20369;-53
2022/08/27 04:13:54;;;;;;;;;;;20.70;99.90;;;;;;5054716;28;19963;-48
2022/08/27 04:16:19;;;;;;;;;;;20.70;99.90;;;;;;5055110;28;19913;-54
2022/08/27 04:18:45;;;;;;;;;;;20.70;99.90;;;;;;5053485;28;19913;-55
2022/08/27 04:21:11;;;;;;;;;;;20.70;99.90;;;;;;5054693;28;19921;-50
2022/08/27 04:23:38;;;;;;;;;;;20.60;99.90;;;;;;5053513;28;20349;-51
2022/08/27 04:26:07;;;;;;;;;;;20.70;99.90;;;;;;5054013;28;19913;-50
2022/08/27 04:28:32;;;;;;;;;;;20.70;99.90;;;;;;5053998;28;19913;-53
2022/08/27 04:30:58;;;;;;;;;;;20.70;99.90;;;;;;5053739;28;19981;-47
2022/08/27 04:33:23;;;;;;;;;;;20.80;99.90;;;;;;5052882;28;20007;-55
2022/08/27 04:35:59;;;;;;;;;;;20.70;99.90;;;;;;5053903;28;19935;-47
2022/08/27 04:38:25;;;;;;;;;;;20.70;99.90;;;;;;5054679;28;19913;-49
2022/08/27 04:43:35;;;;;;;;;;;20.70;99.90;;;;;;5054243;28;20373;-51
2022/08/27 04:46:00;;;;;;;;;;;20.60;99.90;;;;;;5054188;28;19973;-51
2022/08/27 04:48:26;;;;;;;;;;;20.60;99.90;;;;;;5054763;28;20017;-52
2022/08/27 04:50:51;;;;;;;;;;;20.60;99.90;;;;;;5054024;28;19944;-53
2022/08/27 04:53:17;;;;;;;;;;;20.50;99.90;;;;;;5054583;28;19913;-51
2022/08/27 04:55:47;;;;;;;;;;;20.70;99.90;;;;;;5053396;28;20436;-54
2022/08/27 04:58:13;;;;;;;;;;;20.70;99.90;;;;;;5054951;28;19917;-55
2022/08/27 05:00:43;;;;;;;;;;;20.70;99.90;;;;;;5052855;28;19924;-55
2022/08/27 05:03:09;;;;;;;;;;;20.70;99.90;;;;;;5046713;28;19944;-51
2022/08/27 05:05:35;;;;;;;;;;;20.70;99.90;;;;;;5039413;28;20389;-52
2022/08/27 05:08:01;;;;;;;;;;;20.60;99.90;;;;;;5053509;28;19916;-54
2022/08/27 05:10:27;;;;;;;;;;;20.60;99.90;;;;;;5051342;28;19962;-51
2022/08/27 05:12:52;;;;;;;;;;;20.50;99.90;;;;;;5052711;28;20324;-47
2022/08/27 05:15:18;;;;;;;;;;;20.60;99.90;;;;;;5053681;28;20405;-50
2022/08/27 05:17:43;;;;;;;;;;;20.60;99.90;;;;;;5054374;28;19970;-57
2022/08/27 05:20:09;;;;;;;;;;;20.60;99.90;;;;;;5053798;28;20352;-48
2022/08/27 05:22:35;;;;;;;;;;;20.60;99.90;;;;;;5051755;28;19939;-48
2022/08/27 05:25:00;;;;;;;;;;;20.60;99.90;;;;;;5054799;28;19908;-49
2022/08/27 05:27:26;;;;;;;;;;;20.70;99.90;;;;;;5053760;28;19912;-52
2022/08/27 05:29:51;;;;;;;;;;;20.70;99.90;;;;;;5052376;28;19913;-52
2022/08/27 05:32:17;;;;;;;;;;;20.60;99.90;;;;;;5051591;28;19924;-51
2022/08/27 05:34:42;;;;;;;;;;;20.70;99.90;;;;;;5052562;28;19909;-53
2022/08/27 05:37:08;;;;;;;;;;;20.70;99.90;;;;;;5053031;28;19940;-56
2022/08/27 05:39:34;;;;;;;;;;;20.70;99.90;;;;;;5054057;28;19920;-54
2022/08/27 05:42:00;;;;;;;;;;;20.60;99.90;;;;;;5054451;28;19979;-48
2022/08/27 05:44:25;;;;;;;;;;;20.60;99.90;;;;;;5052173;28;19928;-49
2022/08/27 05:46:51;;;;;;;;;;;20.60;99.90;;;;;;5053897;28;19913;-52
2022/08/27 05:49:17;;;;;;;;;;;20.30;99.90;;;;;;5054111;28;19924;-53
2022/08/27 05:51:42;;;;;;;;;;;20.10;99.90;;;;;;5054202;28;19936;-55
2022/08/27 05:54:13;;;;;;;;;;;20.20;99.90;;;;;;5053701;28;19916;-47
2022/08/27 05:56:40;;;;;;;;;;;20.30;99.90;;;;;;5052487;28;20032;-53
2022/08/27 06:01:51;;;;;;;;;;;20.20;99.90;;;;;;5052846;28;19921;-49
2022/08/27 06:04:18;;;;;;;;;;;20.20;99.90;;;;;;5052411;28;20003;-50
2022/08/27 06:06:44;;;;;;;;;;;20.20;99.90;;;;;;5051604;28;19913;-48
2022/08/27 06:09:11;;;;;;;;;;;20.40;99.90;;;;;;5053000;28;19913;-57
2022/08/27 06:11:37;;;;;;;;;;;20.40;99.90;;;;;;5051910;28;20301;-53
2022/08/27 06:14:03;;;;;;;;;;;20.40;99.90;;;;;;5052437;28;19962;-52
2022/08/27 06:16:29;;;;;;;;;;;20.40;99.90;;;;;;5052619;28;20304;-55
2022/08/27 06:18:58;;;;;;;;;;;20.40;99.90;;;;;;5052576;28;19916;-54
2022/08/27 06:21:24;;;;;;;;;;;20.50;99.90;;;;;;5050422;28;19916;-56
2022/08/27 06:23:50;;;;;;;;;;;20.30;99.90;;;;;;5052708;28;19909;-56
2022/08/27 06:26:17;;;;;;;;;;;20.40;99.90;;;;;;5052125;28;19917;-56
2022/08/27 06:28:43;;;;;;;;;;;20.40;99.90;;;;;;5050799;28;20050;-51
2022/08/27 06:31:17;;;;;;;;;;;20.50;99.90;;;;;;5052167;28;19920;-52
2022/08/27 06:33:43;;;;;;;;;;;20.40;99.90;;;;;;5052115;28;20406;-51
2022/08/27 06:36:10;;;;;;;;;;;20.40;99.90;;;;;;5050765;28;19916;-51
2022/08/27 06:38:36;;;;;;;;;;;20.40;99.90;;;;;;5053425;28;19917;-52
2022/08/27 06:41:03;;;;;;;;;;;20.30;99.90;;;;;;5051828;28;20365;-47
2022/08/27 06:43:28;;;;;;;;;;;20.30;99.90;;;;;;5052278;28;19967;-49
2022/08/27 06:45:54;;;;;;;;;;;20.20;99.90;;;;;;5050205;28;19929;-51
2022/08/27 06:48:20;;;;;;;;;;;20.20;99.90;;;;;;5052586;28;19908;-50
2022/08/27 06:50:46;;;;;;;;;;;20.30;99.90;;;;;;5051754;28;20026;-49
2022/08/27 06:53:11;;;;;;;;;;;20.30;99.90;;;;;;5051574;28;19920;-50
2022/08/27 06:55:41;;;;;;;;;;;20.30;99.90;;;;;;5051847;28;19913;-50
2022/08/27 06:58:06;;;;;;;;;;;20.30;99.90;;;;;;5052787;28;19909;-53
2022/08/27 07:00:32;;;;;;;;;;;20.40;99.90;;;;;;5050390;28;20459;-49
2022/08/27 07:02:57;;;;;;;;;;;20.40;99.90;;;;;;5034002;28;19920;-54
2022/08/27 07:05:24;;;;;;;;;;;20.50;99.90;;;;;;5050159;28;19917;-54
2022/08/27 07:07:50;;;;;;;;;;;20.30;99.90;;;;;;5051090;28;19917;-50
2022/08/27 07:10:15;;;;;;;;;;;20.30;99.90;;;;;;5051754;28;20395;-51
2022/08/27 07:12:41;;;;;;;;;;;20.30;99.90;;;;;;5050197;28;19917;-54
2022/08/27 07:15:07;;;;;;;;;;;20.20;99.90;;;;;;5051786;28;19919;-52
2022/08/27 07:17:33;;;;;;;;;;;20.30;99.90;;;;;;5051377;28;20289;-47
2022/08/27 07:19:58;;;;;;;;;;;20.20;99.90;;;;;;5052083;28;20457;-56
2022/08/27 07:22:24;;;;;;;;;;;20.20;99.90;;;;;;5049132;28;20535;-53
2022/08/27 07:24:50;;;;;;;;;;;20.30;99.90;;;;;;5051269;28;19916;-51
2022/08/27 07:27:16;;;;;;;;;;;20.30;99.90;;;;;;5051302;28;19913;-54
2022/08/27 07:29:41;;;;;;;;;;;20.30;99.90;;;;;;5051846;28;19924;-52
2022/08/27 07:32:07;;;;;;;;;;;20.20;99.90;;;;;;5051396;28;19913;-54
2022/08/27 07:34:32;;;;;;;;;;;20.20;99.90;;;;;;5053699;28;19999;-50
2022/08/27 07:36:58;;;;;;;;;;;20.20;99.90;;;;;;5055293;28;20475;-53
2022/08/27 07:39:23;;;;;;;;;;;20.20;99.90;;;;;;5055642;28;20261;-53
2022/08/27 07:44:33;;;;;;;;;;;20.20;99.90;;;;;;5047779;28;19921;-50
2022/08/27 07:46:59;;;;;;;;;;;20.20;99.90;;;;;;5033913;28;19924;-51
2022/08/27 07:49:26;;;;;;;;;;;20.40;99.90;;;;;;5055287;28;19912;-52
2022/08/27 07:51:52;;;;;;;;;;;20.40;99.90;;;;;;5053937;28;20262;-53
2022/08/27 07:54:19;;;;;;;;;;;20.40;99.90;;;;;;5054210;28;19924;-50
2022/08/27 07:56:45;;;;;;;;;;;20.20;99.90;;;;;;5055238;28;19919;-50
2022/08/27 07:59:11;;;;;;;;;;;20.30;99.90;;;;;;5054841;28;20300;-52
2022/08/27 08:01:36;;;;;;;;;;;20.20;99.90;;;;;;5053972;28;20387;-55
2022/08/27 08:04:02;;;;;;;;;;;20.20;99.90;;;;;;5055024;28;20395;-54
2022/08/27 08:06:28;;;;;;;;;;;20.40;99.90;;;;;;5055188;28;20327;-47
2022/08/27 08:08:53;;;;;;;;;;;20.30;99.90;;;;;;5056173;28;19943;-50
2022/08/27 08:11:19;;;;;;;;;;;20.30;99.90;;;;;;5055433;28;19928;-52
2022/08/27 08:13:45;;;;;;;;;;;20.30;99.90;;;;;;5055202;28;19913;-53
2022/08/27 08:16:11;;;;;;;;;;;20.50;99.90;;;;;;5054769;28;19957;-56
2022/08/27 08:18:36;;;;;;;;;;;20.40;99.90;;;;;;5055890;28;19909;-54
2022/08/27 08:21:03;;;;;;;;;;;20.50;99.90;;;;;;5054825;28;19921;-51
2022/08/27 08:23:29;;;;;;;;;;;20.60;99.90;;;;;;5055069;28;20292;-53
2022/08/27 08:25:56;;;;;;;;;;;20.70;99.90;;;;;;5054585;28;19925;-51
2022/08/27 08:28:22;;;;;;;;;;;20.60;99.90;;;;;;5054944;28;19913;-53
2022/08/27 08:30:47;;;;;;;;;;;20.50;99.90;;;;;;5053231;28;19924;-53
2022/08/27 08:33:13;;;;;;;;;;;20.40;99.90;;;;;;5055053;28;19920;-48
2022/08/27 08:35:39;;;;;;;;;;;20.40;99.90;;;;;;5054808;28;20000;-51
2022/08/27 08:38:05;;;;;;;;;;;20.30;99.90;;;;;;5054499;28;20561;-50
2022/08/27 08:40:35;;;;;;;;;;;20.20;99.90;;;;;;5053526;28;19999;-52
2022/08/27 08:43:02;;;;;;;;;;;20.10;99.90;;;;;;5050708;28;19919;-51
2022/08/27 08:45:30;;;;;;;;;;;20.10;99.90;;;;;;5050409;28;19917;-52
2022/08/27 08:48:04;;;;;;;;;;;20.20;99.90;;;;;;5053521;28;19925;-49
2022/08/27 08:50:34;;;;;;;;;;;20.20;99.90;;;;;;5051887;28;20575;-48
2022/08/27 08:53:20;;;;;;;;;;;20.20;99.90;;;;;;5052985;28;19913;-54
2022/08/27 08:55:48;;;;;;;;;;;20.10;99.90;;;;;;5054583;28;20325;-54
2022/08/27 08:58:40;;;;;;;;;;;20.10;99.90;;;;;;5053789;28;19931;-53
2022/08/27 09:01:07;;;;;;;;;;;20.10;99.90;;;;;;5030308;28;20410;-51
2022/08/27 09:03:35;;;;;;;;;;;20.00;99.90;;;;;;5054035;28;19916;-55
2022/08/27 09:06:09;;;;;;;;;;;20.10;99.90;;;;;;5048859;28;19913;-53
2022/08/27 09:08:41;;;;;;;;;;;20.10;99.90;;;;;;5052995;28;20020;-52
2022/08/27 09:11:13;;;;;;;;;;;20.00;99.90;;;;;;5041411;28;19920;-51
2022/08/27 09:13:41;;;;;;;;;;;20.10;99.90;;;;;;5054187;28;20328;-50
2022/08/27 09:16:06;;;;;;;;;;;20.10;99.90;;;;;;5053576;28;19909;-53
2022/08/27 09:18:35;;;;;;;;;;;20.00;99.90;;;;;;5054200;28;20284;-48
2022/08/27 09:21:06;;;;;;;;;;;20.00;99.90;;;;;;5054114;28;20288;-53
2022/08/27 09:23:37;;;;;;;;;;;19.90;99.90;;;;;;5054260;28;19919;-51
2022/08/27 09:26:03;;;;;;;;;;;19.90;99.90;;;;;;5051540;28;19963;-51
2022/08/27 09:31:17;;;;;;;;;;;20.10;99.90;;;;;;5034165;28;19922;-51
2022/08/27 09:33:43;;;;;;;;;;;20.10;99.90;;;;;;5052543;28;19909;-50
2022/08/27 09:36:10;;;;;;;;;;;20.00;99.90;;;;;;5053584;28;19921;-50
2022/08/27 09:38:39;;;;;;;;;;;20.10;99.90;;;;;;5048739;28;19940;-54
2022/08/27 09:41:06;;;;;;;;;;;20.20;99.90;;;;;;5052505;28;19927;-46
2022/08/27 09:43:32;;;;;;;;;;;20.30;99.90;;;;;;5052031;28;19923;-50
2022/08/27 09:46:00;;;;;;;;;;;20.30;99.90;;;;;;5045887;28;20205;-51
2022/08/27 09:48:28;;;;;;;;;;;20.30;99.90;;;;;;5053893;28;19924;-51
2022/08/27 09:51:01;;;;;;;;;;;20.40;99.90;;;;;;5051387;28;19976;-51
2022/08/27 09:53:34;;;;;;;;;;;20.60;99.90;;;;;;5053028;28;19962;-53
2022/08/27 09:56:05;;;;;;;;;;;20.50;99.90;;;;;;5051737;28;19924;-53
2022/08/27 09:58:33;;;;;;;;;;;20.50;99.90;;;;;;5052793;28;19917;-51
2022/08/27 10:01:00;;;;;;;;;;;20.60;99.90;;;;;;5053100;28;19978;-50
2022/08/27 10:03:26;;;;;;;;;;;20.70;99.90;;;;;;5054057;28;19912;-56
2022/08/27 10:05:53;;;;;;;;;;;20.80;99.90;;;;;;5051109;28;20309;-50
2022/08/27 10:08:18;;;;;;;;;;;20.80;99.90;;;;;;5053173;28;20425;-49
2022/08/27 10:11:00;;;;;;;;;;;20.90;99.90;;;;;;5052736;28;19917;-52
2022/08/27 10:13:30;;;;;;;;;;;20.90;99.90;;;;;;5053119;28;19909;-52
2022/08/27 10:16:04;;;;;;;;;;;20.90;99.90;;;;;;5053392;28;19909;-56
2022/08/27 10:18:43;;;;;;;;;;;21.00;99.90;;;;;;5053277;28;19913;-52
2022/08/27 10:21:23;;;;;;;;;;;21.10;99.90;;;;;;5053185;28;20254;-55
2022/08/27 10:23:56;;;;;;;;;;;21.10;99.90;;;;;;5052957;28;20498;-54
2022/08/27 10:26:24;;;;;;;;;;;21.30;99.90;;;;;;5052768;28;19935;-54
2022/08/27 10:28:56;;;;;;;;;;;21.40;99.90;;;;;;5052506;28;20261;-53
2022/08/27 10:31:24;;;;;;;;;;;21.60;99.90;;;;;;5053832;28;19916;-54
2022/08/27 10:33:53;;;;;;;;;;;21.70;99.90;;;;;;5052530;28;19997;-53
2022/08/27 10:36:37;;;;;;;;;;;21.80;99.90;;;;;;5049727;28;19913;-54
2022/08/27 10:39:22;;;;;;;;;;;21.90;99.90;;;;;;5052808;28;19962;-54
2022/08/27 10:42:05;;;;;;;;;;;21.90;99.90;;;;;;5053226;28;19978;-54
2022/08/27 10:44:49;;;;;;;;;;;21.90;99.90;;;;;;5045506;28;19917;-52
2022/08/27 10:47:30;;;;;;;;;;;21.90;99.90;;;;;;5034763;28;19920;-55
2022/08/27 10:49:56;;;;;;;;;;;21.80;99.90;;;;;;5052227;28;19921;-56
2022/08/27 10:52:44;;;;;;;;;;;21.70;99.90;;;;;;5052021;28;20323;-60
2022/08/27 10:55:11;;;;;;;;;;;21.90;99.90;;;;;;5047282;28;19913;-57
2022/08/27 10:58:12;;;;;;;;;;;22.00;99.90;;;;;;5052971;28;20381;-55
2022/08/27 11:00:50;;;;;;;;;;;22.10;99.90;;;;;;4991094;28;19918;-51
2022/08/27 11:03:21;;;;;;;;;;;22.10;99.90;;;;;;5045001;28;19908;-56
2022/08/27 11:05:48;;;;;;;;;;;22.20;99.90;;;;;;5053173;28;20004;-59
2022/08/27 11:08:13;;;;;;;;;;;22.20;99.90;;;;;;5055520;28;19912;-51
2022/08/27 11:10:42;;;;;;;;;;;22.20;99.90;;;;;;5056501;28;20060;-57
2022/08/27 11:13:11;;;;;;;;;;;22.20;99.90;;;;;;5056806;28;19927;-59
2022/08/27 11:15:40;;;;;;;;;;;22.00;99.90;;;;;;5057124;28;19913;-54
2022/08/27 11:18:15;;;;;;;;;;;22.00;99.90;;;;;;5056195;28;19913;-58
2022/08/27 11:20:47;;;;;;;;;;;21.90;99.90;;;;;;5055963;28;19917;-60
2022/08/27 11:23:17;;;;;;;;;;;21.90;99.90;;;;;;5055932;28;19913;-53
2022/08/27 11:25:57;;;;;;;;;;;22.00;99.90;;;;;;5057383;28;19982;-59
2022/08/27 11:28:26;;;;;;;;;;;22.10;99.90;;;;;;5052545;28;19913;-55
2022/08/27 11:30:56;;;;;;;;;;;22.10;99.90;;;;;;5036105;28;19975;-54
2022/08/27 11:33:34;;;;;;;;;;;22.10;99.90;;;;;;5053129;28;19913;-58
2022/08/27 11:36:19;;;;;;;;;;;22.10;99.90;;;;;;5055579;28;20610;-56
2022/08/27 11:38:56;;;;;;;;;;;22.10;99.90;;;;;;5053338;28;19913;-56
2022/08/27 11:41:31;;;;;;;;;;;22.00;99.90;;;;;;5052047;28;20269;-55
2022/08/27 11:43:57;;;;;;;;;;;22.00;99.90;;;;;;5053813;28;19913;-57
2022/08/27 11:46:25;;;;;;;;;;;22.10;99.90;;;;;;5049356;28;19916;-54
2022/08/27 11:48:55;;;;;;;;;;;22.20;99.90;;;;;;5056254;28;19909;-52
2022/08/27 11:51:27;;;;;;;;;;;22.40;99.90;;;;;;5055674;28;19917;-54
2022/08/27 11:53:54;;;;;;;;;;;22.50;99.90;;;;;;5056143;28;19909;-57
2022/08/27 11:56:35;;;;;;;;;;;22.60;99.90;;;;;;5055005;28;19962;-56
2022/08/27 11:59:23;;;;;;;;;;;22.70;99.90;;;;;;5054275;28;19909;-57
2022/08/27 12:01:51;;;;;;;;;;;22.70;99.90;;;;;;5055090;28;19917;-54
2022/08/27 12:04:31;;;;;;;;;;;22.80;99.90;;;;;;5055738;28;19967;-55
2022/08/27 12:07:03;;;;;;;;;;;23.00;99.90;;;;;;5055142;28;19913;-55
2022/08/27 12:09:28;;;;;;;;;;;22.70;99.90;;;;;;5055574;28;19913;-55
2022/08/27 12:12:05;;;;;;;;;;;22.40;99.90;;;;;;5056763;28;19913;-49
2022/08/27 12:14:44;;;;;;;;;;;22.30;99.90;;;;;;5053989;28;20368;-51
2022/08/27 12:17:09;;;;;;;;;;;22.10;99.90;;;;;;5054070;28;19917;-54
2022/08/27 12:19:55;;;;;;;;;;;22.10;99.90;;;;;;5056749;28;19909;-57
2022/08/27 12:22:30;;;;;;;;;;;22.20;99.90;;;;;;5055747;28;19923;-55
2022/08/27 12:24:56;;;;;;;;;;;22.20;99.90;;;;;;5056290;28;19988;-55
2022/08/27 12:27:26;;;;;;;;;;;22.20;99.90;;;;;;5054902;28;19913;-55
2022/08/27 12:29:55;;;;;;;;;;;22.20;99.90;;;;;;5055300;28;19909;-56
2022/08/27 12:32:21;;;;;;;;;;;22.30;99.90;;;;;;5054369;28;19999;-55
2022/08/27 12:34:51;;;;;;;;;;;22.20;99.90;;;;;;5053845;28;20001;-51
2022/08/27 12:37:20;;;;;;;;;;;22.10;99.90;;;;;;5050638;28;19923;-53
2022/08/27 12:39:48;;;;;;;;;;;22.20;99.90;;;;;;5054493;28;19943;-51
2022/08/27 12:42:17;;;;;;;;;;;22.00;99.90;;;;;;5045718;28;19920;-55
2022/08/27 12:44:43;;;;;;;;;;;21.90;99.90;;;;;;5055266;28;19955;-53
2022/08/27 12:47:11;;;;;;;;;;;22.00;99.90;;;;;;5059678;28;19923;-55
2022/08/27 12:49:56;;;;;;;;;;;22.20;99.90;;;;;;5065342;28;19963;-54
2022/08/27 12:52:40;;;;;;;;;;;22.40;99.90;;;;;;5061327;28;19912;-53
2022/08/27 12:55:12;;;;;;;;;;;22.90;99.90;;;;;;5050760;28;20137;-54
2022/08/27 12:57:49;;;;;;;;;;;22.50;99.90;;;;;;5044928;28;19913;-56
2022/08/27 13:00:18;;;;;;;;;;;22.40;99.90;;;;;;5053219;28;19912;-54
2022/08/27 13:03:10;;;;;;;;;;;22.50;99.90;;;;;;5054209;28;19924;-56
2022/08/27 13:05:40;;;;;;;;;;;22.50;99.90;;;;;;5038171;28;19927;-52
2022/08/27 13:08:16;;;;;;;;;;;22.50;99.90;;;;;;5053722;28;19912;-52
2022/08/27 13:10:42;;;;;;;;;;;22.40;99.90;;;;;;5054224;28;20286;-57
2022/08/27 13:13:10;;;;;;;;;;;22.60;99.90;;;;;;5054100;28;19951;-53
2022/08/27 13:15:40;;;;;;;;;;;22.80;99.90;;;;;;5053975;28;20011;-50
2022/08/27 13:18:06;;;;;;;;;;;22.90;99.90;;;;;;5053432;28;19962;-55
2022/08/27 13:20:35;;;;;;;;;;;23.10;99.90;;;;;;5054313;28;20041;-51
2022/08/27 13:23:01;;;;;;;;;;;23.20;99.90;;;;;;5054134;28;19958;-55
2022/08/27 13:25:28;;;;;;;;;;;23.10;99.90;;;;;;5053601;28;20002;-55
2022/08/27 13:27:55;;;;;;;;;;;23.20;99.90;;;;;;5052983;28;19970;-56
2022/08/27 13:30:21;;;;;;;;;;;23.20;99.90;;;;;;5053700;28;19909;-56
2022/08/27 13:32:48;;;;;;;;;;;23.40;99.90;;;;;;5052138;28;19913;-55
2022/08/27 13:35:14;;;;;;;;;;;23.30;99.90;;;;;;5053659;28;19912;-55
2022/08/27 13:37:43;;;;;;;;;;;23.60;99.90;;;;;;5053343;28;19917;-52
2022/08/27 13:40:09;;;;;;;;;;;23.20;99.90;;;;;;5054166;28;19909;-56
2022/08/27 13:42:39;;;;;;;;;;;23.10;99.90;;;;;;5053622;28;19920;-55
2022/08/27 13:45:05;;;;;;;;;;;23.10;99.90;;;;;;5053400;28;19933;-58
2022/08/27 13:47:38;;;;;;;;;;;23.00;99.90;;;;;;5052930;28;19909;-49
2022/08/27 13:50:06;;;;;;;;;;;23.10;99.90;;;;;;5052401;28;20003;-57
2022/08/27 13:54:11;;;;;;;;;;;23.30;99.90;;;;;;5046103;28;19936;-53
2022/08/27 13:55:22;;;;;;;;;;;23.10;99.90;;;;;;5031976;28;19921;-57
2022/08/27 13:57:49;;;;;;;;;;;23.20;99.90;;;;;;5032167;28;20593;-54
2022/08/27 14:00:15;;;;;;;;;;;23.10;99.90;;;;;;5031729;28;20328;-56
2022/08/27 14:02:41;;;;;;;;;;;22.90;99.90;;;;;;5044175;28;19913;-52
2022/08/27 14:05:11;;;;;;;;;;;23.00;99.90;;;;;;5052629;28;20399;-54
2022/08/27 14:07:48;;;;;;;;;;;23.10;99.90;;;;;;5052973;28;19917;-55
2022/08/27 14:10:16;;;;;;;;;;;23.10;99.90;;;;;;5050932;28;20419;-54
2022/08/27 14:12:43;;;;;;;;;;;23.20;99.90;;;;;;5049568;28;19909;-53
2022/08/27 14:15:27;;;;;;;;;;;23.30;99.90;;;;;;5054241;28;19912;-54
2022/08/27 14:17:53;;;;;;;;;;;23.30;99.90;;;;;;5054112;28;19908;-51
2022/08/27 14:20:19;;;;;;;;;;;23.50;99.90;;;;;;5053351;28;19919;-52
2022/08/27 14:22:45;;;;;;;;;;;23.60;99.90;;;;;;5052495;28;19913;-55
2022/08/27 14:25:11;;;;;;;;;;;23.40;99.90;;;;;;5053462;28;19913;-49
2022/08/27 14:27:38;;;;;;;;;;;23.40;99.90;;;;;;5045352;28;20452;-54
2022/08/27 14:30:04;;;;;;;;;;;23.30;99.90;;;;;;5050733;28;19920;-56
2022/08/27 14:32:31;;;;;;;;;;;23.10;99.90;;;;;;5052546;28;20280;-54
2022/08/27 14:34:56;;;;;;;;;;;22.90;99.90;;;;;;5052131;28;19925;-52
2022/08/27 14:37:22;;;;;;;;;;;22.80;99.90;;;;;;5052538;28;19946;-51